createdAt,value
2023-01-13T00:01:49.525Z,16.75
2023-01-13T00:04:18.093Z,14.50
2023-01-13T00:06:46.020Z,13.13
2023-01-13T00:09:13.959Z,11.75
2023-01-13T00:11:43.104Z,11.40
2023-01-13T00:14:11.211Z,12.45
2023-01-13T00:16:39.147Z,10.32
2023-01-13T00:19:07.610Z,11.45
2023-01-13T00:21:36.683Z,13.27
2023-01-13T00:24:05.075Z,13.38
2023-01-13T00:26:36.019Z,12.45
2023-01-13T00:29:04.263Z,12.93
2023-01-13T00:31:32.477Z,15.07
2023-01-13T00:34:03.020Z,12.95
2023-01-13T00:36:33.166Z,16.30
2023-01-13T00:39:01.361Z,13.82
2023-01-13T00:41:49.622Z,15.40
2023-01-13T00:44:18.403Z,13.32
2023-01-13T00:46:46.663Z,12.38
2023-01-13T00:49:14.683Z,14.77
2023-01-13T00:51:42.891Z,12.75
2023-01-13T00:54:10.876Z,14.50
2023-01-13T00:56:41.327Z,13.27
2023-01-13T00:59:13.653Z,15.27
2023-01-13T01:01:42.217Z,10.95
2023-01-13T01:04:11.226Z,10.05
2023-01-13T01:06:40.138Z,11.90
2023-01-13T01:09:08.396Z,13.07
2023-01-13T01:11:38.105Z,14.63
2023-01-13T01:14:06.729Z,20.67
2023-01-13T01:16:35.551Z,22.63
2023-01-13T01:19:04.250Z,18.27
2023-01-13T01:21:32.839Z,17.77
2023-01-13T01:24:02.081Z,15.75
2023-01-13T01:26:33.133Z,13.98
2023-01-13T01:29:02.610Z,12.63
2023-01-13T01:31:33.141Z,14.13
2023-01-13T01:34:01.831Z,14.63
2023-01-13T01:36:30.448Z,16.50
2023-01-13T01:38:58.794Z,15.02
2023-01-13T01:41:29.460Z,15.27
2023-01-13T01:44:08.512Z,14.80
2023-01-13T01:46:43.443Z,14.65
2023-01-13T01:49:14.053Z,15.93
2023-01-13T01:51:50.760Z,19.17
2023-01-13T01:54:27.960Z,19.33
2023-01-13T01:56:57.066Z,17.20
2023-01-13T01:59:30.438Z,17.20
2023-01-13T02:01:59.287Z,14.18
2023-01-13T02:04:36.802Z,14.38
2023-01-13T02:07:04.766Z,13.93
2023-01-13T02:09:36.003Z,13.50
2023-01-13T02:12:23.098Z,12.18
2023-01-13T02:14:51.024Z,13.07
2023-01-13T02:17:22.459Z,13.15
2023-01-13T02:20:16.390Z,12.23
2023-01-13T02:23:51.873Z,11.88
2023-01-13T02:26:36.819Z,13.63
2023-01-13T02:29:34.520Z,12.95
2023-01-13T02:32:33.604Z,14.55
2023-01-13T02:35:08.824Z,12.57
2023-01-13T02:37:39.119Z,12.05
2023-01-13T02:40:13.769Z,12.77
2023-01-13T02:43:07.174Z,13.00
2023-01-13T02:45:56.122Z,13.48
2023-01-13T02:48:24.248Z,14.60
2023-01-13T02:50:57.726Z,13.82
2023-01-13T02:54:08.950Z,15.25
2023-01-13T02:56:39.751Z,16.33
2023-01-13T02:59:07.747Z,16.95
2023-01-13T03:01:37.965Z,13.52
2023-01-13T03:04:13.326Z,12.55
2023-01-13T03:07:25.553Z,13.48
2023-01-13T03:10:02.134Z,13.23
2023-01-13T03:12:38.259Z,15.88
2023-01-13T03:15:30.685Z,16.27
2023-01-13T03:18:07.655Z,15.70
2023-01-13T03:20:37.739Z,17.67
2023-01-13T03:23:14.469Z,19.15
2023-01-13T03:25:47.666Z,19.70
2023-01-13T03:28:25.969Z,20.00
2023-01-13T03:30:56.997Z,19.73
2023-01-13T03:33:29.696Z,18.70
2023-01-13T03:35:59.814Z,19.65
2023-01-13T03:38:45.178Z,17.02
2023-01-13T03:41:29.406Z,16.27
2023-01-13T03:44:22.677Z,18.48
2023-01-13T03:47:11.202Z,19.20
2023-01-13T03:49:40.680Z,14.18
2023-01-13T03:52:10.643Z,13.05
2023-01-13T03:55:01.502Z,13.60
2023-01-13T03:57:31.461Z,13.18
2023-01-13T04:00:00.515Z,12.30
2023-01-13T04:02:37.357Z,11.75
2023-01-13T04:05:07.389Z,10.48
2023-01-13T04:08:12.059Z,9.80
2023-01-13T04:10:56.108Z,11.18
2023-01-13T04:13:24.810Z,10.60
2023-01-13T04:15:52.767Z,10.07
2023-01-13T04:18:28.131Z,11.73
2023-01-13T04:20:57.576Z,13.43
2023-01-13T04:23:25.855Z,13.23
2023-01-13T04:25:53.764Z,13.50
2023-01-13T04:28:21.755Z,14.88
2023-01-13T04:30:49.595Z,15.80
2023-01-13T04:33:19.437Z,17.23
2023-01-13T04:35:47.885Z,16.85
2023-01-13T04:38:17.514Z,17.25
2023-01-13T04:40:48.134Z,16.48
2023-01-13T04:43:16.164Z,17.92
2023-01-13T04:45:44.207Z,15.70
2023-01-13T04:48:12.350Z,16.45
2023-01-13T04:50:40.267Z,16.77
2023-01-13T04:53:08.181Z,18.25
2023-01-13T04:55:36.315Z,17.73
2023-01-13T04:58:09.347Z,19.13
2023-01-13T05:00:38.034Z,18.67
2023-01-13T05:03:05.953Z,22.80
2023-01-13T05:05:34.449Z,17.73
2023-01-13T05:08:03.377Z,36.78
2023-01-13T05:10:31.436Z,29.65
2023-01-13T05:13:18.265Z,33.05
2023-01-13T05:16:06.728Z,35.58
2023-01-13T05:18:34.882Z,23.75
2023-01-13T05:21:02.766Z,20.05
2023-01-13T05:23:49.595Z,16.95
2023-01-13T05:26:17.554Z,14.65
2023-01-13T05:28:45.388Z,17.05
2023-01-13T05:31:15.115Z,21.45
2023-01-13T05:33:43.515Z,21.45
2023-01-13T05:36:11.388Z,17.48
2023-01-13T05:38:40.183Z,17.38
2023-01-13T05:41:26.865Z,14.80
2023-01-13T05:43:54.809Z,13.60
2023-01-13T05:46:22.684Z,12.98
2023-01-13T05:48:50.867Z,14.15
2023-01-13T05:51:19.822Z,15.50
2023-01-13T05:53:48.507Z,14.15
2023-01-13T05:56:18.125Z,13.45
2023-01-13T05:58:47.371Z,13.55
2023-01-13T06:01:16.216Z,14.48
2023-01-13T06:03:44.462Z,14.80
2023-01-13T06:06:12.851Z,15.07
2023-01-13T06:08:40.904Z,15.20
2023-01-13T06:11:08.950Z,16.17
2023-01-13T06:13:37.136Z,18.08
2023-01-13T06:16:05.365Z,17.48
2023-01-13T06:18:33.266Z,15.48
2023-01-13T06:21:01.625Z,16.75
2023-01-13T06:23:29.727Z,19.25
2023-01-13T06:26:14.707Z,18.67
2023-01-13T06:28:43.211Z,17.58
2023-01-13T06:31:11.189Z,19.20
2023-01-13T06:34:09.487Z,20.02
2023-01-13T06:36:40.412Z,19.10
2023-01-13T06:39:08.370Z,18.30
2023-01-13T06:41:55.072Z,14.63
2023-01-13T06:44:23.272Z,16.83
2023-01-13T06:46:52.209Z,16.95
2023-01-13T06:49:21.686Z,18.38
2023-01-13T06:51:50.664Z,18.98
2023-01-13T06:54:18.558Z,15.55
2023-01-13T06:56:46.463Z,12.55
2023-01-13T06:59:15.384Z,11.07
2023-01-13T07:01:43.995Z,9.43
2023-01-13T07:04:12.487Z,9.65
2023-01-13T07:06:41.002Z,8.52
2023-01-13T07:09:09.526Z,9.30
2023-01-13T07:11:38.234Z,9.73
2023-01-13T07:14:24.591Z,10.10
2023-01-13T07:19:43.263Z,9.32
2023-01-13T07:22:14.224Z,9.77
2023-01-13T07:24:45.006Z,9.05
2023-01-13T07:27:16.424Z,9.00
2023-01-13T07:29:44.963Z,8.25
2023-01-13T07:32:12.824Z,9.60
2023-01-13T07:34:40.662Z,9.77
2023-01-13T07:37:08.823Z,9.25
2023-01-13T07:39:38.131Z,8.90
2023-01-13T07:42:24.951Z,9.38
2023-01-13T07:44:52.899Z,9.38
2023-01-13T07:47:23.594Z,9.23
2023-01-13T07:49:51.618Z,11.23
2023-01-13T07:52:21.469Z,9.48
2023-01-13T07:54:50.227Z,9.93
2023-01-13T07:57:18.642Z,8.80
2023-01-13T07:59:46.633Z,11.00
2023-01-13T08:02:14.756Z,9.05
2023-01-13T08:04:44.418Z,9.32
2023-01-13T08:07:12.207Z,9.30
2023-01-13T08:09:39.950Z,8.13
2023-01-13T08:12:26.357Z,7.90
2023-01-13T08:15:08.417Z,7.38
2023-01-13T08:17:37.165Z,7.03
2023-01-13T08:20:07.193Z,7.20
2023-01-13T08:22:35.644Z,7.57
2023-01-13T08:25:04.069Z,7.88
2023-01-13T08:27:32.617Z,6.82
2023-01-13T08:30:01.459Z,8.32
2023-01-13T08:32:29.728Z,7.97
2023-01-13T08:34:58.088Z,7.78
2023-01-13T08:37:26.189Z,9.50
2023-01-13T08:39:54.786Z,8.65
2023-01-13T08:42:22.629Z,9.00
2023-01-13T08:44:50.526Z,8.25
2023-01-13T08:47:18.365Z,8.23
2023-01-13T08:49:46.325Z,8.77
2023-01-13T08:52:15.781Z,9.63
2023-01-13T08:54:46.056Z,10.55
2023-01-13T08:57:15.488Z,10.80
2023-01-13T08:59:43.617Z,9.88
2023-01-13T09:02:19.102Z,10.02
2023-01-13T09:04:47.860Z,8.13
2023-01-13T09:07:15.672Z,9.88
2023-01-13T09:09:44.447Z,8.25
2023-01-13T09:12:33.360Z,8.77
2023-01-13T09:15:01.809Z,9.52
2023-01-13T09:17:31.635Z,9.48
2023-01-13T09:20:00.092Z,9.93
2023-01-13T09:22:29.467Z,8.63
2023-01-13T09:24:57.394Z,8.23
2023-01-13T09:27:25.443Z,8.35
2023-01-13T09:29:53.612Z,8.77
2023-01-13T09:32:22.451Z,8.57
2023-01-13T09:35:02.158Z,7.10
2023-01-13T09:37:34.218Z,8.27
2023-01-13T09:40:11.944Z,8.40
2023-01-13T09:43:15.259Z,8.15
2023-01-13T09:46:28.925Z,7.72
2023-01-13T09:48:57.426Z,9.02
2023-01-13T09:51:50.225Z,10.80
2023-01-13T09:54:31.115Z,10.23
2023-01-13T09:57:01.339Z,11.52
2023-01-13T09:59:32.769Z,12.60
2023-01-13T10:02:33.156Z,11.40
2023-01-13T10:05:18.147Z,11.20
2023-01-13T10:07:54.473Z,11.73
2023-01-13T10:10:31.090Z,14.15
2023-01-13T10:13:14.412Z,12.13
2023-01-13T10:15:46.890Z,10.82
2023-01-13T10:18:54.501Z,10.80
2023-01-13T14:00:43.048Z,10.52
2023-01-13T14:03:27.088Z,11.07
2023-01-13T14:05:57.790Z,11.93
2023-01-13T14:08:26.584Z,11.15
2023-01-13T14:10:54.569Z,12.93
2023-01-13T14:13:23.422Z,12.85
2023-01-13T14:16:04.999Z,14.57
2023-01-13T14:18:45.672Z,10.68
2023-01-13T14:21:16.948Z,14.60
2023-01-13T14:24:05.678Z,14.85
2023-01-13T14:26:35.450Z,13.68
2023-01-13T14:29:03.740Z,14.02
2023-01-13T14:31:33.186Z,13.38
2023-01-13T14:34:02.866Z,12.32
2023-01-13T14:36:51.457Z,12.32
2023-01-13T14:39:24.214Z,11.93
2023-01-13T14:41:53.439Z,12.32
2023-01-13T14:44:32.584Z,12.00
2023-01-13T14:47:23.848Z,11.35
2023-01-13T14:50:19.605Z,11.35
2023-01-13T14:52:49.257Z,10.45
2023-01-13T14:55:31.629Z,11.05
2023-01-13T14:58:21.718Z,10.55
2023-01-13T15:00:50.345Z,10.65
2023-01-13T15:03:19.441Z,8.60
2023-01-13T15:05:49.521Z,10.68
2023-01-13T15:08:32.641Z,11.55
2023-01-13T15:11:06.053Z,12.77
2023-01-13T15:13:47.827Z,14.00
2023-01-13T15:16:30.001Z,13.52
2023-01-13T15:18:58.260Z,15.32
2023-01-13T15:21:26.461Z,13.05
2023-01-13T15:23:54.321Z,16.35
2023-01-13T15:26:26.845Z,14.85
2023-01-13T15:28:56.463Z,16.45
2023-01-13T15:31:24.767Z,16.27
2023-01-13T15:33:52.621Z,16.40
2023-01-13T15:36:22.257Z,15.73
2023-01-13T15:38:50.956Z,16.67
2023-01-13T15:41:38.900Z,16.73
2023-01-13T15:44:25.875Z,17.60
2023-01-13T15:49:37.360Z,15.15
2023-01-13T15:52:20.203Z,14.75
2023-01-13T15:54:48.479Z,15.13
2023-01-13T15:57:26.542Z,13.52
2023-01-13T15:59:56.869Z,12.38
2023-01-13T16:02:25.432Z,10.07
2023-01-13T16:04:54.162Z,13.93
2023-01-13T16:07:22.945Z,14.52
2023-01-13T16:09:52.371Z,15.75
2023-01-13T16:12:21.554Z,16.35
2023-01-13T16:14:51.061Z,19.05
2023-01-13T16:17:23.755Z,19.77
2023-01-13T16:19:52.673Z,20.73
2023-01-13T16:22:20.623Z,17.83
2023-01-13T16:24:48.699Z,17.35
2023-01-13T16:27:17.684Z,15.82
2023-01-13T16:29:45.652Z,15.23
2023-01-13T16:32:13.880Z,15.88
2023-01-13T16:34:43.579Z,17.17
2023-01-13T16:37:27.454Z,18.30
2023-01-13T16:39:55.455Z,15.65
2023-01-13T16:42:23.491Z,16.08
2023-01-13T16:44:53.051Z,16.73
2023-01-13T16:47:22.891Z,14.32
2023-01-13T16:49:50.747Z,15.15
2023-01-13T16:52:18.639Z,14.93
2023-01-13T16:54:46.481Z,14.20
2023-01-13T16:57:16.095Z,15.73
2023-01-13T16:59:44.328Z,13.90
2023-01-13T17:02:13.789Z,14.25
2023-01-13T17:04:45.265Z,15.25
2023-01-13T17:07:15.602Z,15.48
2023-01-13T17:09:48.568Z,12.88
2023-01-13T17:12:16.808Z,13.27
2023-01-13T17:14:48.743Z,14.43
2023-01-13T17:17:25.062Z,15.02
2023-01-13T17:19:52.969Z,14.48
2023-01-13T17:22:22.094Z,16.52
2023-01-13T17:24:50.095Z,14.70
2023-01-13T17:27:18.913Z,14.77
2023-01-13T17:29:47.795Z,16.15
2023-01-13T17:32:19.091Z,15.82
2023-01-13T17:34:47.542Z,16.85
2023-01-13T17:37:17.660Z,15.90
2023-01-13T17:39:48.781Z,16.80
2023-01-13T17:42:16.767Z,18.63
2023-01-13T17:44:44.659Z,17.52
2023-01-13T17:47:12.970Z,17.70
2023-01-13T17:49:41.108Z,16.38
2023-01-13T17:52:09.087Z,15.90
2023-01-13T17:54:40.056Z,15.93
2023-01-13T17:57:10.597Z,18.02
2023-01-13T17:59:38.590Z,16.42
2023-01-13T18:02:48.903Z,16.58
2023-01-13T18:05:23.376Z,15.00
2023-01-13T18:07:55.069Z,14.25
2023-01-13T18:10:23.617Z,12.38
2023-01-13T18:12:51.469Z,15.38
2023-01-13T18:15:19.363Z,15.05
2023-01-13T18:17:48.387Z,14.75
2023-01-13T18:20:35.961Z,15.90
2023-01-13T18:23:25.206Z,16.42
2023-01-13T18:26:12.112Z,15.95
2023-01-13T18:28:40.045Z,17.33
2023-01-13T18:31:14.562Z,18.50
2023-01-13T18:33:43.164Z,20.73
2023-01-13T18:36:11.309Z,17.77
2023-01-13T18:38:39.287Z,19.08
2023-01-13T18:41:27.693Z,17.55
2023-01-13T18:43:55.509Z,17.55
2023-01-13T18:46:23.414Z,20.15
2023-01-13T18:48:52.853Z,19.33
2023-01-13T18:51:21.577Z,19.85
2023-01-13T18:53:55.224Z,19.33
2023-01-13T18:56:23.420Z,20.95
2023-01-13T18:58:52.334Z,19.55
2023-01-13T19:01:26.008Z,18.13
2023-01-13T19:03:57.029Z,18.88
2023-01-13T19:06:27.775Z,19.60
2023-01-13T19:09:26.896Z,19.95
2023-01-13T19:11:57.229Z,21.25
2023-01-13T19:14:34.544Z,20.90
2023-01-13T19:17:03.104Z,21.63
2023-01-13T19:19:31.652Z,21.35
2023-01-13T19:21:59.498Z,22.63
2023-01-13T19:24:27.448Z,22.48
2023-01-13T19:26:55.447Z,22.10
2023-01-13T19:29:23.652Z,21.63
2023-01-13T19:31:51.734Z,22.40
2023-01-13T19:34:19.981Z,20.55
2023-01-13T19:36:50.884Z,20.45
2023-01-13T19:39:19.638Z,22.50
2023-01-13T19:42:07.485Z,22.15
2023-01-13T19:44:55.779Z,25.08
2023-01-13T19:47:23.978Z,21.10
2023-01-13T19:49:52.324Z,22.45
2023-01-13T19:52:20.747Z,22.02
2023-01-13T19:54:48.652Z,22.77
2023-01-13T19:57:16.723Z,24.30
2023-01-13T19:59:44.534Z,22.45
2023-01-13T20:02:16.735Z,22.70
2023-01-13T20:04:49.991Z,24.20
2023-01-13T20:07:18.339Z,25.98
2023-01-13T20:09:46.437Z,23.05
2023-01-13T20:12:17.450Z,23.15
2023-01-13T20:14:47.887Z,24.30
2023-01-13T20:17:19.230Z,23.38
2023-01-13T20:19:47.650Z,22.15
2023-01-13T20:22:17.857Z,21.83
2023-01-13T20:24:48.615Z,24.48
2023-01-13T20:27:16.559Z,20.55
2023-01-13T20:29:47.024Z,22.42
2023-01-13T20:32:15.295Z,22.63
2023-01-13T20:34:43.719Z,24.85
2023-01-13T20:37:14.141Z,23.75
2023-01-13T20:39:49.950Z,25.85
2023-01-13T20:42:30.145Z,24.20
2023-01-13T20:45:01.460Z,25.30
2023-01-13T20:47:30.093Z,26.30
2023-01-13T20:49:59.426Z,22.33
2023-01-13T20:52:28.087Z,22.90
2023-01-13T20:55:21.819Z,22.85
2023-01-13T20:57:50.391Z,23.70
2023-01-13T21:00:22.087Z,22.25
2023-01-13T21:02:50.565Z,24.15
2023-01-13T21:05:20.082Z,23.92
2023-01-13T21:07:48.264Z,24.98
2023-01-13T21:10:16.647Z,24.17
2023-01-13T21:13:03.994Z,26.65
2023-01-13T21:15:31.894Z,24.33
2023-01-13T21:18:23.432Z,27.13
2023-01-13T21:21:12.632Z,23.02
2023-01-13T21:23:44.308Z,22.40
2023-01-13T21:26:13.130Z,20.63
2023-01-13T21:28:42.681Z,22.02
2023-01-13T21:31:11.009Z,21.58
2023-01-13T21:33:39.657Z,22.55
2023-01-13T21:36:12.911Z,20.60
2023-01-13T21:41:14.535Z,22.92
2023-01-13T21:44:06.856Z,22.30
2023-01-13T21:46:53.933Z,22.17
2023-01-13T21:49:21.796Z,21.30
2023-01-13T21:51:49.728Z,23.98
2023-01-13T21:54:17.553Z,22.83
2023-01-13T21:56:45.860Z,24.95
2023-01-13T21:59:17.352Z,23.40
2023-01-13T22:02:02.795Z,24.38
2023-01-13T22:04:34.658Z,22.80
2023-01-13T22:07:04.758Z,22.05
2023-01-13T22:09:33.876Z,21.13
2023-01-13T22:12:01.809Z,22.92
2023-01-13T22:14:30.910Z,22.83
2023-01-13T22:17:01.179Z,24.58
2023-01-13T22:19:30.649Z,21.98
2023-01-13T22:21:59.842Z,23.13
2023-01-13T22:24:30.306Z,23.27
2023-01-13T22:27:20.962Z,23.83
2023-01-13T22:29:49.871Z,22.80
2023-01-13T22:32:18.584Z,23.10
2023-01-13T22:34:46.810Z,22.02
2023-01-13T22:37:15.236Z,20.67
2023-01-13T22:39:43.547Z,22.38
2023-01-13T22:42:13.227Z,22.85
2023-01-13T22:44:41.190Z,22.75
2023-01-13T22:47:10.072Z,24.27
2023-01-13T22:49:38.700Z,22.25
2023-01-13T22:52:07.337Z,22.90
2023-01-13T22:54:35.508Z,21.75
2023-01-13T22:57:04.312Z,23.13
2023-01-13T22:59:32.789Z,24.40
2023-01-13T23:02:01.012Z,22.95
2023-01-13T23:04:29.534Z,22.63
2023-01-13T23:06:57.772Z,22.58
2023-01-13T23:09:29.928Z,22.80
2023-01-13T23:12:02.147Z,21.55
2023-01-13T23:14:30.961Z,19.98
2023-01-13T23:16:58.955Z,22.90
2023-01-13T23:19:26.948Z,22.65
2023-01-13T23:21:54.963Z,17.20
2023-01-13T23:24:26.509Z,21.15
2023-01-13T23:26:55.169Z,23.55
2023-01-13T23:29:23.374Z,23.75
2023-01-13T23:31:54.117Z,25.10
2023-01-13T23:34:22.328Z,26.73
2023-01-13T23:36:50.393Z,24.50
2023-01-13T23:39:21.302Z,26.08
2023-01-13T23:41:49.524Z,24.98
2023-01-13T23:44:17.546Z,24.52
2023-01-13T23:46:46.012Z,24.50
2023-01-13T23:49:34.467Z,22.15
2023-01-13T23:52:02.687Z,23.60
2023-01-13T23:54:34.183Z,24.20
2023-01-13T23:57:02.518Z,23.20
2023-01-13T23:59:31.047Z,24.23
